createdAt,value
2017-11-15T00:01:16.480Z,25.15
2017-11-15T00:03:44.064Z,23.87
2017-11-15T00:06:11.614Z,24.52
2017-11-15T00:08:39.212Z,25.40
2017-11-15T00:11:06.798Z,25.10
2017-11-15T00:13:34.406Z,26.25
2017-11-15T00:16:01.964Z,26.35
2017-11-15T00:18:29.534Z,24.90
2017-11-15T00:20:57.145Z,24.65
2017-11-15T00:23:25.478Z,26.65
2017-11-15T00:25:53.103Z,25.45
2017-11-15T00:28:21.423Z,23.95
2017-11-15T00:30:48.982Z,25.17
2017-11-15T00:33:16.578Z,23.45
2017-11-15T00:35:44.149Z,22.85
2017-11-15T00:38:12.512Z,22.77
2017-11-15T00:40:40.103Z,26.67
2017-11-15T00:43:08.418Z,23.92
2017-11-15T00:45:36.027Z,26.05
2017-11-15T00:48:04.367Z,22.85
2017-11-15T00:50:31.971Z,22.02
2017-11-15T00:53:00.293Z,23.23
2017-11-15T00:55:27.852Z,24.77
2017-11-15T00:57:55.456Z,21.12
2017-11-15T01:00:23.050Z,23.02
2017-11-15T01:02:50.627Z,22.40
2017-11-15T01:05:18.235Z,20.85
2017-11-15T01:07:45.786Z,21.33
2017-11-15T01:10:13.395Z,20.88
2017-11-15T01:12:40.958Z,21.65
2017-11-15T01:15:08.521Z,22.73
2017-11-15T01:17:36.123Z,20.85
2017-11-15T01:20:03.671Z,20.45
2017-11-15T01:22:31.231Z,21.48
2017-11-15T01:24:59.587Z,22.30
2017-11-15T01:27:27.168Z,23.30
2017-11-15T01:29:54.761Z,20.20
2017-11-15T01:32:22.327Z,22.95
2017-11-15T01:34:49.914Z,19.62
2017-11-15T01:37:18.228Z,18.75
2017-11-15T01:39:45.821Z,18.37
2017-11-15T01:42:13.382Z,19.55
2017-11-15T01:44:40.972Z,20.12
2017-11-15T01:47:08.534Z,22.02
2017-11-15T01:49:36.903Z,18.10
2017-11-15T01:52:05.223Z,19.58
2017-11-15T01:54:32.818Z,19.25
2017-11-15T01:57:00.374Z,20.67
2017-11-15T01:59:27.969Z,19.85
2017-11-15T02:01:56.338Z,17.17
2017-11-15T02:04:24.673Z,20.10
2017-11-15T02:06:52.290Z,19.83
2017-11-15T02:09:19.906Z,18.98
2017-11-15T02:11:47.681Z,19.67
2017-11-15T02:14:16.027Z,19.83
2017-11-15T02:16:43.638Z,19.05
2017-11-15T02:19:11.975Z,18.80
2017-11-15T02:21:39.579Z,18.80
2017-11-15T02:24:07.910Z,20.42
2017-11-15T02:26:35.481Z,19.45
2017-11-15T02:29:03.103Z,23.35
2017-11-15T02:31:30.653Z,19.70
2017-11-15T02:33:59.038Z,21.73
2017-11-15T02:36:26.592Z,22.05
2017-11-15T02:38:54.906Z,19.92
2017-11-15T02:41:22.522Z,21.40
2017-11-15T02:43:50.914Z,22.48
2017-11-15T02:46:18.479Z,21.65
2017-11-15T02:48:46.093Z,20.45
2017-11-15T02:51:13.711Z,20.23
2017-11-15T02:53:41.270Z,21.25
2017-11-15T02:56:08.859Z,23.20
2017-11-15T02:58:36.423Z,19.08
2017-11-15T03:01:04.039Z,21.00
2017-11-15T03:03:31.642Z,20.35
2017-11-15T03:05:59.199Z,20.37
2017-11-15T03:08:26.756Z,19.90
2017-11-15T03:10:54.355Z,20.02
2017-11-15T03:13:21.917Z,20.25
2017-11-15T03:15:49.506Z,19.73
2017-11-15T03:18:17.103Z,20.25
2017-11-15T03:20:44.727Z,18.27
2017-11-15T03:23:12.337Z,19.55
2017-11-15T03:25:39.907Z,20.40
2017-11-15T03:28:07.606Z,19.55
2017-11-15T03:30:35.945Z,22.80
2017-11-15T03:33:03.499Z,20.08
2017-11-15T03:35:31.104Z,21.40
2017-11-15T03:37:59.423Z,22.70
2017-11-15T03:40:26.984Z,21.55
2017-11-15T03:42:54.591Z,21.80
2017-11-15T03:45:22.142Z,22.95
2017-11-15T03:47:49.689Z,25.92
2017-11-15T03:50:17.282Z,26.02
2017-11-15T03:52:45.613Z,28.48
2017-11-15T03:55:13.219Z,26.58
2017-11-15T03:57:41.550Z,24.92
2017-11-15T04:00:09.156Z,28.00
2017-11-15T04:02:39.412Z,26.10
2017-11-15T04:05:06.968Z,24.87
2017-11-15T04:07:34.599Z,26.33
2017-11-15T04:10:02.934Z,26.50
2017-11-15T04:12:30.498Z,26.17
2017-11-15T04:14:58.102Z,24.80
2017-11-15T04:17:26.457Z,24.30
2017-11-15T04:19:54.058Z,25.30
2017-11-15T04:22:22.384Z,27.02
2017-11-15T04:24:49.996Z,28.17
2017-11-15T04:27:17.554Z,27.75
2017-11-15T04:29:45.923Z,27.30
2017-11-15T04:32:14.286Z,28.12
2017-11-15T04:34:41.859Z,26.65
2017-11-15T04:37:10.215Z,26.02
2017-11-15T04:39:37.817Z,26.83
2017-11-15T04:42:05.398Z,26.73
2017-11-15T04:44:33.004Z,27.33
2017-11-15T04:47:00.594Z,25.75
2017-11-15T04:49:28.918Z,28.25
2017-11-15T04:51:56.534Z,23.73
2017-11-15T04:54:24.855Z,26.98
2017-11-15T04:56:52.443Z,24.52
2017-11-15T04:59:20.003Z,27.13
2017-11-15T05:01:47.601Z,26.15
2017-11-15T05:04:15.162Z,24.83
2017-11-15T05:06:42.727Z,25.42
2017-11-15T05:09:10.323Z,22.65
2017-11-15T05:11:37.928Z,24.75
2017-11-15T05:14:06.249Z,22.35
2017-11-15T05:16:33.810Z,23.42
2017-11-15T05:19:01.424Z,24.35
2017-11-15T05:21:29.753Z,23.67
2017-11-15T05:23:57.339Z,23.60
2017-11-15T05:26:24.939Z,23.40
2017-11-15T05:28:52.510Z,23.42
2017-11-15T05:31:20.079Z,26.70
2017-11-15T05:33:47.680Z,21.60
2017-11-15T05:36:15.275Z,23.45
2017-11-15T05:38:43.649Z,24.12
2017-11-15T05:41:11.991Z,23.33
2017-11-15T05:43:39.580Z,22.98
2017-11-15T05:46:07.948Z,25.17
2017-11-15T05:48:35.554Z,23.35
2017-11-15T05:51:03.117Z,22.45
2017-11-15T05:53:30.675Z,25.20
2017-11-15T05:55:58.275Z,23.52
2017-11-15T05:58:25.829Z,22.85
2017-11-15T06:00:53.439Z,23.33
2017-11-15T06:03:21.770Z,24.20
2017-11-15T06:05:49.323Z,21.55
2017-11-15T06:08:16.916Z,21.55
2017-11-15T06:10:45.380Z,24.33
2017-11-15T06:13:12.882Z,24.65
2017-11-15T06:15:40.599Z,23.40
2017-11-15T06:18:08.926Z,22.60
2017-11-15T06:20:36.546Z,23.45
2017-11-15T06:23:04.856Z,23.42
2017-11-15T06:25:33.279Z,24.08
2017-11-15T06:28:00.905Z,21.55
2017-11-15T06:30:28.488Z,19.25
2017-11-15T06:32:56.914Z,20.33
2017-11-15T06:35:25.225Z,18.23
2017-11-15T06:37:52.872Z,18.08
2017-11-15T06:40:20.379Z,17.67
2017-11-15T06:42:47.937Z,16.65
2017-11-15T06:45:15.556Z,18.87
2017-11-15T06:47:43.942Z,19.85
2017-11-15T06:50:12.287Z,22.05
2017-11-15T06:52:39.846Z,20.58
2017-11-15T06:55:07.442Z,22.92
2017-11-15T06:57:35.794Z,18.48
2017-11-15T07:00:03.389Z,20.95
2017-11-15T07:02:31.715Z,21.62
2017-11-15T07:04:59.328Z,19.45
2017-11-15T07:07:27.657Z,20.85
2017-11-15T07:09:55.281Z,19.55
2017-11-15T07:12:22.845Z,19.80
2017-11-15T07:14:50.414Z,19.45
2017-11-15T07:17:18.011Z,20.23
2017-11-15T07:19:45.614Z,17.77
2017-11-15T07:22:13.185Z,19.25
2017-11-15T07:24:40.806Z,18.67
2017-11-15T07:27:08.490Z,20.02
2017-11-15T07:29:36.851Z,22.40
2017-11-15T07:32:05.185Z,20.52
2017-11-15T07:34:32.783Z,20.37
2017-11-15T07:37:00.343Z,18.37
2017-11-15T07:39:27.910Z,18.83
2017-11-15T07:41:56.302Z,19.62
2017-11-15T07:44:24.900Z,16.92
2017-11-15T07:46:53.423Z,17.52
2017-11-15T07:49:21.002Z,18.17
2017-11-15T07:51:49.565Z,17.60
2017-11-15T07:54:17.432Z,17.85
2017-11-15T07:56:45.329Z,17.12
2017-11-15T07:59:13.415Z,16.62
2017-11-15T08:01:41.419Z,17.65
2017-11-15T08:04:09.610Z,17.77
2017-11-15T08:06:37.789Z,17.92
2017-11-15T08:09:06.409Z,18.15
2017-11-15T08:11:36.286Z,17.67
2017-11-15T08:14:06.298Z,16.10
2017-11-15T08:16:42.097Z,15.80
2017-11-15T08:19:13.204Z,15.45
2017-11-15T08:21:43.578Z,14.13
2017-11-15T08:24:12.840Z,15.60
2017-11-15T08:26:42.650Z,15.25
2017-11-15T08:29:12.493Z,16.58
2017-11-15T08:31:41.637Z,16.67
2017-11-15T08:34:09.794Z,16.37
2017-11-15T08:36:38.007Z,16.62
2017-11-15T08:39:07.053Z,14.65
2017-11-15T08:41:39.163Z,14.77
2017-11-15T08:44:08.019Z,16.98
2017-11-15T08:46:38.449Z,16.98
2017-11-15T08:49:07.185Z,16.87
2017-11-15T08:51:36.104Z,17.40
2017-11-15T08:54:04.766Z,18.67
2017-11-15T08:56:45.266Z,18.80
2017-11-15T08:59:23.940Z,15.35
2017-11-15T09:01:54.017Z,17.17
2017-11-15T09:04:22.299Z,16.37
2017-11-15T09:06:50.261Z,17.48
2017-11-15T09:09:18.282Z,16.92
2017-11-15T09:11:46.928Z,16.67
2017-11-15T09:14:14.728Z,16.50
2017-11-15T09:16:42.521Z,16.50
2017-11-15T09:19:11.311Z,15.82
2017-11-15T09:21:39.275Z,16.95
2017-11-15T09:24:07.184Z,17.42
2017-11-15T09:26:34.990Z,17.67
2017-11-15T09:29:19.426Z,16.05
2017-11-15T09:31:47.485Z,15.95
2017-11-15T09:34:20.849Z,16.40
2017-11-15T09:37:12.817Z,17.77
2017-11-15T09:39:52.767Z,17.02
2017-11-15T09:42:24.768Z,16.42
2017-11-15T09:44:55.903Z,19.12
2017-11-15T09:47:38.018Z,18.77
2017-11-15T09:50:12.275Z,18.27
2017-11-15T09:52:45.889Z,18.10
2017-11-15T09:55:13.944Z,18.62
2017-11-15T09:57:46.221Z,16.55
2017-11-15T10:00:19.800Z,18.27
2017-11-15T10:03:03.657Z,17.95
2017-11-15T10:05:31.395Z,19.48
2017-11-15T10:07:59.049Z,16.95
2017-11-15T10:10:26.965Z,19.30
2017-11-15T10:13:01.803Z,19.98
2017-11-15T10:15:30.536Z,18.80
2017-11-15T10:17:58.447Z,20.83
2017-11-15T10:20:26.103Z,19.73
2017-11-15T10:22:54.449Z,19.25
2017-11-15T10:25:22.074Z,19.98
2017-11-15T10:27:49.669Z,22.10
2017-11-15T10:30:17.320Z,20.77
2017-11-15T10:32:45.386Z,21.52
2017-11-15T10:35:13.330Z,20.88
2017-11-15T10:37:41.179Z,19.02
2017-11-15T10:40:09.042Z,20.27
2017-11-15T10:42:36.795Z,21.45
2017-11-15T10:45:09.290Z,20.80
2017-11-15T10:47:38.713Z,23.40
2017-11-15T10:50:06.709Z,25.58
2017-11-15T10:52:34.773Z,23.90
2017-11-15T10:55:04.781Z,23.48
2017-11-15T10:57:33.283Z,23.00
2017-11-15T11:00:01.286Z,24.12
2017-11-15T11:02:28.988Z,22.92
2017-11-15T11:05:08.470Z,20.90
2017-11-15T11:07:36.112Z,21.98
2017-11-15T11:10:03.865Z,22.08
2017-11-15T11:12:36.694Z,21.23
2017-11-15T11:15:04.319Z,22.25
2017-11-15T11:17:31.982Z,22.35
2017-11-15T11:20:06.003Z,21.27
2017-11-15T11:22:34.930Z,20.02
2017-11-15T11:25:02.542Z,23.42
2017-11-15T11:27:30.330Z,23.00
2017-11-15T11:29:57.909Z,21.50
2017-11-15T11:32:25.488Z,20.88
2017-11-15T11:35:01.529Z,23.70
2017-11-15T11:37:29.884Z,20.92
2017-11-15T11:39:57.469Z,22.75
2017-11-15T11:42:27.027Z,20.62
2017-11-15T11:44:54.602Z,22.13
2017-11-15T11:47:22.239Z,21.98
2017-11-15T11:49:49.978Z,23.23
2017-11-15T11:52:18.343Z,21.62
2017-11-15T11:54:45.963Z,20.80
2017-11-15T11:57:13.592Z,17.65
2017-11-15T11:59:44.092Z,17.60
2017-11-15T12:02:12.622Z,18.33
2017-11-15T12:04:40.379Z,17.42
2017-11-15T12:07:08.223Z,16.65
2017-11-15T12:09:36.919Z,17.00
2017-11-15T12:12:14.322Z,19.03
2017-11-15T12:14:42.158Z,17.65
2017-11-15T12:17:11.056Z,18.57
2017-11-15T12:19:38.778Z,18.63
2017-11-15T12:22:06.655Z,18.00
2017-11-15T12:24:34.325Z,19.33
2017-11-15T12:27:01.936Z,19.17
2017-11-15T12:29:29.627Z,20.73
2017-11-15T12:31:57.319Z,21.05
2017-11-15T12:37:46.315Z,20.10
2017-11-15T12:40:13.887Z,21.08
2017-11-15T12:42:42.257Z,22.02
2017-11-15T12:45:09.887Z,21.87
2017-11-15T12:47:37.464Z,21.60
2017-11-15T12:50:09.998Z,20.85
2017-11-15T12:52:37.620Z,20.67
2017-11-15T12:55:05.295Z,22.08
2017-11-15T12:57:33.763Z,21.77
2017-11-15T13:00:02.147Z,20.85
2017-11-15T13:02:35.387Z,20.05
2017-11-15T13:05:13.466Z,19.65
2017-11-15T13:07:48.524Z,20.00
2017-11-15T13:10:22.175Z,20.73
2017-11-15T13:12:56.096Z,20.35
2017-11-15T13:15:24.108Z,21.58
2017-11-15T13:17:51.993Z,19.60
2017-11-15T13:20:19.775Z,20.17
2017-11-15T13:22:47.846Z,20.35
2017-11-15T13:25:16.597Z,20.83
2017-11-15T13:27:44.389Z,22.37
2017-11-15T13:30:12.410Z,20.15
2017-11-15T13:32:40.090Z,20.67
2017-11-15T13:35:08.526Z,19.65
2017-11-15T13:37:36.865Z,19.25
2017-11-15T13:40:04.958Z,20.45
2017-11-15T13:42:33.085Z,18.67
2017-11-15T13:45:02.396Z,18.35
2017-11-15T13:47:30.751Z,18.20
2017-11-15T13:49:58.525Z,18.23
2017-11-15T13:52:26.302Z,17.62
2017-11-15T13:54:54.025Z,18.25
2017-11-15T13:57:21.705Z,17.95
2017-11-15T13:59:49.948Z,18.40
2017-11-15T14:02:20.594Z,20.27
2017-11-15T14:04:49.331Z,22.10
2017-11-15T14:07:19.402Z,19.75
2017-11-15T14:09:49.425Z,23.27
2017-11-15T14:12:18.191Z,21.50
2017-11-15T14:14:45.775Z,20.98
2017-11-15T14:17:14.706Z,21.08
2017-11-15T14:19:43.750Z,21.67
2017-11-15T14:22:13.425Z,20.17
2017-11-15T14:24:42.363Z,21.25
2017-11-15T14:27:11.144Z,20.15
2017-11-15T14:29:40.489Z,20.80
2017-11-15T14:32:08.786Z,21.50
2017-11-15T14:34:57.577Z,22.13
2017-11-15T14:37:54.776Z,22.05
2017-11-15T14:40:24.474Z,20.58
2017-11-15T14:42:52.579Z,21.25
2017-11-15T14:45:20.597Z,23.23
2017-11-15T14:47:49.188Z,24.25
2017-11-15T14:50:17.293Z,22.95
2017-11-15T14:52:45.868Z,22.17
2017-11-15T14:55:14.798Z,22.58
2017-11-15T14:57:43.792Z,23.40
2017-11-15T15:00:11.889Z,21.95
2017-11-15T15:02:40.302Z,21.90
2017-11-15T15:05:14.161Z,23.90
2017-11-15T15:07:45.116Z,22.33
2017-11-15T15:10:26.934Z,23.27
2017-11-15T15:13:00.205Z,23.05
2017-11-15T15:15:27.848Z,23.70
2017-11-15T15:17:55.398Z,23.38
2017-11-15T15:20:24.237Z,22.98
2017-11-15T15:22:52.603Z,21.02
2017-11-15T15:25:20.502Z,20.60
2017-11-15T15:27:48.870Z,22.27
2017-11-15T15:30:17.334Z,22.87
2017-11-15T15:32:44.934Z,24.58
2017-11-15T15:35:12.706Z,23.20
2017-11-15T15:37:40.290Z,25.35
2017-11-15T15:40:09.184Z,23.60
2017-11-15T15:42:48.774Z,24.58
2017-11-15T15:45:19.366Z,25.27
2017-11-15T15:47:46.999Z,24.83
2017-11-15T15:50:14.658Z,25.37
2017-11-15T15:52:42.270Z,27.08
2017-11-15T15:55:10.056Z,26.27
2017-11-15T15:57:37.642Z,25.73
2017-11-15T16:00:05.419Z,22.58
2017-11-15T16:02:33.463Z,24.70
2017-11-15T16:05:01.817Z,26.23
2017-11-15T16:07:29.409Z,22.75
2017-11-15T16:09:57.833Z,23.23
2017-11-15T16:12:25.390Z,24.30
2017-11-15T16:14:53.152Z,20.40
2017-11-15T16:17:20.715Z,23.25
2017-11-15T16:19:48.332Z,20.80
2017-11-15T16:22:16.702Z,22.23
2017-11-15T16:24:44.358Z,21.85
2017-11-15T16:27:11.952Z,20.73
2017-11-15T16:29:39.638Z,26.67
2017-11-15T16:32:07.280Z,21.35
2017-11-15T16:34:34.863Z,17.95
2017-11-15T16:37:02.506Z,20.90
2017-11-15T16:39:30.214Z,20.90
2017-11-15T16:41:57.809Z,20.90
2017-11-15T16:44:26.551Z,19.95
2017-11-15T16:46:54.135Z,21.40
2017-11-15T16:49:21.698Z,20.15
2017-11-15T16:51:49.339Z,17.77
2017-11-15T16:54:16.917Z,19.17
2017-11-15T16:56:45.076Z,17.77
2017-11-15T16:59:13.067Z,18.23
2017-11-15T17:01:42.321Z,19.45
2017-11-15T17:04:14.039Z,18.20
2017-11-15T17:06:49.198Z,19.25
2017-11-15T17:09:19.100Z,18.15
2017-11-15T17:11:52.454Z,18.87
2017-11-15T17:14:23.227Z,17.83
2017-11-15T17:16:57.357Z,19.98
2017-11-15T17:19:28.045Z,19.33
2017-11-15T17:21:58.388Z,18.85
2017-11-15T17:24:28.668Z,19.55
2017-11-15T17:26:58.783Z,20.87
2017-11-15T17:29:28.391Z,18.55
2017-11-15T17:31:58.087Z,21.83
2017-11-15T17:34:29.097Z,18.27
2017-11-15T17:36:58.679Z,21.00
2017-11-15T17:39:28.298Z,17.48
2017-11-15T17:41:57.179Z,20.27
2017-11-15T17:44:26.262Z,18.83
2017-11-15T17:46:57.563Z,21.23
2017-11-15T17:49:28.503Z,18.40
2017-11-15T17:51:56.968Z,20.83
2017-11-15T17:54:26.935Z,21.85
2017-11-15T17:56:56.543Z,20.02
2017-11-15T17:59:25.712Z,18.67
2017-11-15T18:01:59.151Z,22.92
2017-11-15T18:04:28.767Z,20.95
2017-11-15T18:06:58.455Z,20.62
2017-11-15T18:09:27.454Z,19.85
2017-11-15T18:11:56.843Z,21.17
2017-11-15T18:14:26.754Z,19.77
2017-11-15T18:17:00.261Z,17.73
2017-11-15T18:19:31.423Z,18.20
2017-11-15T18:22:00.417Z,19.80
2017-11-15T18:24:30.875Z,18.35
2017-11-15T18:27:01.006Z,19.62
2017-11-15T18:29:30.589Z,19.10
2017-11-15T18:31:59.355Z,17.80
2017-11-15T18:34:27.711Z,19.30
2017-11-15T18:36:58.188Z,18.48
2017-11-15T18:39:27.793Z,18.42
2017-11-15T18:41:57.287Z,18.52
2017-11-15T18:44:26.870Z,16.40
2017-11-15T18:46:56.435Z,17.73
2017-11-15T18:49:25.851Z,18.50
2017-11-15T18:51:56.271Z,20.33
2017-11-15T18:54:25.269Z,17.08
2017-11-15T18:56:55.907Z,17.58
2017-11-15T18:59:26.028Z,19.42
2017-11-15T19:01:56.372Z,18.35
2017-11-15T19:04:25.017Z,18.62
2017-11-15T19:06:53.246Z,18.15
2017-11-15T19:09:21.436Z,16.80
2017-11-15T19:11:51.740Z,18.70
2017-11-15T19:14:20.073Z,18.98
2017-11-15T19:16:48.997Z,20.48
2017-11-15T19:19:18.518Z,19.33
2017-11-15T19:21:47.022Z,20.50
2017-11-15T19:24:14.638Z,19.17
2017-11-15T19:26:42.911Z,21.00
2017-11-15T19:29:10.545Z,17.60
2017-11-15T19:31:38.101Z,17.70
2017-11-15T19:34:05.751Z,20.00
2017-11-15T19:36:33.359Z,20.95
2017-11-15T19:39:01.858Z,20.58
2017-11-15T19:41:29.816Z,20.40
2017-11-15T19:43:57.443Z,19.67
2017-11-15T19:46:26.367Z,20.02
2017-11-15T19:48:54.485Z,19.98
2017-11-15T19:51:22.411Z,19.00
2017-11-15T19:53:50.187Z,21.42
2017-11-15T19:56:17.834Z,18.58
2017-11-15T19:58:45.420Z,18.60
2017-11-15T20:01:13.059Z,20.00
2017-11-15T20:03:41.393Z,21.40
2017-11-15T20:06:08.943Z,20.98
2017-11-15T20:08:36.540Z,17.95
2017-11-15T20:11:04.109Z,18.15
2017-11-15T20:13:31.721Z,18.17
2017-11-15T20:15:59.342Z,18.42
2017-11-15T20:18:26.939Z,18.87
2017-11-15T20:20:54.503Z,20.15
2017-11-15T20:23:22.136Z,19.67
2017-11-15T20:25:49.847Z,18.58
2017-11-15T20:28:17.447Z,20.30
2017-11-15T20:30:45.955Z,19.33
2017-11-15T20:33:13.520Z,19.17
2017-11-15T20:35:41.124Z,19.45
2017-11-15T20:38:08.686Z,19.60
2017-11-15T20:40:36.290Z,19.70
2017-11-15T20:43:03.875Z,18.70
2017-11-15T20:45:31.491Z,19.45
2017-11-15T20:47:59.864Z,18.58
2017-11-15T20:50:28.207Z,19.02
2017-11-15T20:52:55.807Z,18.15
2017-11-15T20:55:24.180Z,20.25
2017-11-15T20:57:51.790Z,20.77
2017-11-15T21:00:19.373Z,18.95
2017-11-15T21:02:50.014Z,21.50
2017-11-15T21:05:17.584Z,20.10
2017-11-15T21:07:45.174Z,20.08
2017-11-15T21:10:12.735Z,19.65
2017-11-15T21:12:40.343Z,21.02
2017-11-15T21:15:08.017Z,20.05
2017-11-15T21:17:35.583Z,21.00
2017-11-15T21:20:03.215Z,20.05
2017-11-15T21:22:30.780Z,21.77
2017-11-15T21:24:58.533Z,22.20
2017-11-15T21:27:26.150Z,20.23
2017-11-15T21:29:54.532Z,20.60
2017-11-15T21:32:22.876Z,19.92
2017-11-15T21:34:50.495Z,21.60
2017-11-15T21:37:18.313Z,21.62
2017-11-15T21:39:45.951Z,21.77
2017-11-15T21:42:14.458Z,20.00
2017-11-15T21:44:42.122Z,22.40
2017-11-15T21:47:09.722Z,21.98
2017-11-15T21:49:38.055Z,22.70
2017-11-15T21:52:05.615Z,22.30
2017-11-15T21:54:33.223Z,21.80
2017-11-15T21:57:01.552Z,22.67
2017-11-15T21:59:29.125Z,23.67
2017-11-15T22:01:56.746Z,23.75
2017-11-15T22:04:24.310Z,22.17
2017-11-15T22:06:51.937Z,21.50
2017-11-15T22:09:19.576Z,24.60
2017-11-15T22:11:47.143Z,25.52
2017-11-15T22:14:14.892Z,22.13
2017-11-15T22:16:42.450Z,22.70
2017-11-15T22:19:10.140Z,23.65
2017-11-15T22:21:38.506Z,24.65
2017-11-15T22:24:06.111Z,26.37
2017-11-15T22:26:33.675Z,24.23
2017-11-15T22:29:01.231Z,22.90
2017-11-15T22:31:28.826Z,24.52
2017-11-15T22:33:56.385Z,24.80
2017-11-15T22:36:23.980Z,23.98
2017-11-15T22:38:52.327Z,25.23
2017-11-15T22:41:19.927Z,21.95
2017-11-15T22:43:47.507Z,22.65
2017-11-15T22:46:15.126Z,23.75
2017-11-15T22:48:42.698Z,22.98
2017-11-15T22:51:11.067Z,24.87
2017-11-15T22:53:39.417Z,21.48
2017-11-15T22:56:07.034Z,22.48
2017-11-15T22:58:35.411Z,24.60
2017-11-15T23:01:03.729Z,23.98
2017-11-15T23:03:31.320Z,24.98
2017-11-15T23:05:58.936Z,21.83
2017-11-15T23:08:26.501Z,24.40
2017-11-15T23:10:54.062Z,24.83
2017-11-15T23:13:21.678Z,24.15
2017-11-15T23:15:49.251Z,25.17
2017-11-15T23:18:17.571Z,25.75
2017-11-15T23:20:45.939Z,24.52
2017-11-15T23:23:13.500Z,26.80
2017-11-15T23:25:41.092Z,25.35
2017-11-15T23:28:08.686Z,25.75
2017-11-15T23:30:37.024Z,24.65
2017-11-15T23:33:04.625Z,25.40
2017-11-15T23:35:32.951Z,22.48
2017-11-15T23:38:00.574Z,24.25
2017-11-15T23:40:28.894Z,26.40
2017-11-15T23:42:56.478Z,27.50
2017-11-15T23:45:24.087Z,25.40
2017-11-15T23:47:51.670Z,27.42
2017-11-15T23:50:19.993Z,27.10
2017-11-15T23:52:48.361Z,27.17
2017-11-15T23:55:15.941Z,24.25
2017-11-15T23:57:44.311Z,24.63
